createdAt,value
2023-04-08T00:01:42.775Z,13.20
2023-04-08T00:04:10.289Z,13.57
2023-04-08T00:06:37.462Z,12.82
2023-04-08T00:09:04.450Z,13.40
2023-04-08T00:11:31.516Z,15.05
2023-04-08T00:13:58.690Z,14.60
2023-04-08T00:16:26.632Z,14.23
2023-04-08T00:18:53.446Z,13.80
2023-04-08T00:21:21.405Z,13.95
2023-04-08T00:23:48.980Z,14.55
2023-04-08T00:26:16.020Z,14.38
2023-04-08T00:28:44.515Z,15.23
2023-04-08T00:31:11.874Z,15.20
2023-04-08T00:33:38.813Z,14.85
2023-04-08T00:36:06.904Z,14.27
2023-04-08T00:38:34.123Z,14.77
2023-04-08T00:41:01.368Z,14.52
2023-04-08T00:43:28.319Z,15.23
2023-04-08T00:45:57.158Z,15.88
2023-04-08T00:48:24.116Z,14.55
2023-04-08T00:50:51.224Z,15.50
2023-04-08T00:53:19.568Z,15.48
2023-04-08T00:55:46.883Z,15.70
2023-04-08T00:58:14.491Z,15.35
2023-04-08T01:00:50.257Z,15.60
2023-04-08T01:03:25.224Z,16.67
2023-04-08T01:06:05.776Z,15.60
2023-04-08T01:08:33.661Z,15.50
2023-04-08T01:11:04.367Z,16.25
2023-04-08T01:13:38.717Z,16.50
2023-04-08T01:16:06.471Z,16.63
2023-04-08T01:18:36.730Z,15.85
2023-04-08T01:21:05.465Z,17.35
2023-04-08T01:24:02.332Z,16.65
2023-04-08T01:26:29.649Z,16.92
2023-04-08T01:28:59.427Z,17.10
2023-04-08T01:31:27.354Z,16.25
2023-04-08T01:33:56.502Z,17.92
2023-04-08T01:36:26.944Z,17.60
2023-04-08T01:38:54.761Z,17.15
2023-04-08T01:41:22.241Z,17.70
2023-04-08T01:43:50.472Z,17.33
2023-04-08T01:46:21.248Z,17.80
2023-04-08T01:48:49.123Z,16.75
2023-04-08T01:51:17.745Z,17.38
2023-04-08T01:53:44.787Z,16.83
2023-04-08T01:56:14.115Z,18.98
2023-04-08T01:58:53.390Z,18.35
2023-04-08T02:01:23.074Z,17.10
2023-04-08T02:03:53.850Z,18.70
2023-04-08T02:06:21.053Z,18.23
2023-04-08T02:08:48.970Z,17.65
2023-04-08T02:11:16.552Z,18.02
2023-04-08T02:13:43.367Z,19.27
2023-04-08T02:16:19.998Z,18.65
2023-04-08T02:19:00.752Z,17.40
2023-04-08T02:21:34.448Z,18.25
2023-04-08T02:24:07.006Z,18.73
2023-04-08T02:26:36.806Z,19.17
2023-04-08T02:29:05.862Z,19.38
2023-04-08T02:31:34.991Z,20.23
2023-04-08T02:34:02.220Z,18.33
2023-04-08T02:36:29.139Z,19.80
2023-04-08T02:38:56.160Z,18.88
2023-04-08T02:41:23.060Z,18.98
2023-04-08T02:43:50.528Z,20.33
2023-04-08T02:46:17.426Z,19.35
2023-04-08T02:48:44.271Z,19.52
2023-04-08T02:51:11.116Z,18.85
2023-04-08T02:53:39.001Z,19.52
2023-04-08T02:56:28.206Z,20.35
2023-04-08T02:58:55.881Z,19.27
2023-04-08T03:01:23.066Z,19.30
2023-04-08T03:03:51.251Z,19.73
2023-04-08T03:06:18.688Z,20.35
2023-04-08T03:08:45.509Z,20.77
2023-04-08T03:11:13.777Z,18.35
2023-04-08T03:13:40.869Z,22.10
2023-04-08T03:16:08.963Z,21.23
2023-04-08T03:18:36.181Z,22.25
2023-04-08T03:21:03.524Z,20.45
2023-04-08T03:23:30.410Z,22.80
2023-04-08T03:25:57.264Z,22.33
2023-04-08T03:28:24.095Z,22.63
2023-04-08T03:30:52.319Z,21.98
2023-04-08T03:33:19.265Z,21.20
2023-04-08T03:35:46.578Z,21.60
2023-04-08T03:38:13.470Z,21.83
2023-04-08T03:40:40.369Z,23.25
2023-04-08T03:43:09.223Z,21.38
2023-04-08T03:45:36.375Z,22.83
2023-04-08T03:48:03.743Z,21.65
2023-04-08T03:50:30.913Z,24.20
2023-04-08T03:52:58.226Z,22.63
2023-04-08T03:55:25.148Z,22.58
2023-04-08T03:57:51.913Z,24.20
2023-04-08T04:00:18.756Z,23.70
2023-04-08T04:02:45.670Z,23.35
2023-04-08T04:05:13.034Z,24.25
2023-04-08T04:07:39.838Z,25.08
2023-04-08T04:10:07.235Z,23.85
2023-04-08T04:12:34.096Z,24.88
2023-04-08T04:15:01.179Z,24.23
2023-04-08T04:17:27.953Z,23.63
2023-04-08T04:19:55.002Z,24.77
2023-04-08T04:22:21.878Z,24.33
2023-04-08T04:24:49.456Z,23.95
2023-04-08T04:27:18.871Z,24.58
2023-04-08T04:29:45.985Z,22.65
2023-04-08T04:32:13.238Z,23.70
2023-04-08T04:34:40.072Z,26.45
2023-04-08T04:37:06.927Z,23.35
2023-04-08T04:39:36.087Z,24.35
2023-04-08T04:42:03.674Z,23.75
2023-04-08T04:44:30.571Z,23.02
2023-04-08T04:46:57.434Z,23.05
2023-04-08T04:49:24.278Z,21.73
2023-04-08T04:51:51.350Z,22.15
2023-04-08T04:54:19.192Z,23.33
2023-04-08T04:56:49.268Z,24.13
2023-04-08T04:59:16.459Z,22.48
2023-04-08T05:01:43.433Z,23.60
2023-04-08T05:04:11.100Z,24.00
2023-04-08T05:06:40.156Z,24.38
2023-04-08T05:09:07.050Z,25.23
2023-04-08T05:11:33.844Z,24.45
2023-04-08T05:14:01.339Z,27.00
2023-04-08T05:16:29.755Z,26.08
2023-04-08T05:18:56.681Z,27.58
2023-04-08T05:21:28.214Z,27.35
2023-04-08T05:23:55.207Z,27.45
2023-04-08T05:26:22.525Z,26.95
2023-04-08T05:28:51.617Z,26.77
2023-04-08T05:31:21.247Z,26.13
2023-04-08T05:33:48.409Z,27.73
2023-04-08T05:36:15.516Z,27.52
2023-04-08T05:38:44.403Z,26.35
2023-04-08T05:41:11.564Z,26.00
2023-04-08T05:43:38.379Z,27.27
2023-04-08T05:46:11.815Z,25.35
2023-04-08T05:48:38.763Z,28.38
2023-04-08T05:51:13.100Z,25.88
2023-04-08T05:53:42.039Z,26.30
2023-04-08T05:56:08.844Z,25.27
2023-04-08T05:58:35.960Z,26.52
2023-04-08T06:01:03.231Z,26.20
2023-04-08T06:03:35.877Z,26.92
2023-04-08T06:06:02.892Z,27.90
2023-04-08T06:08:29.929Z,26.50
2023-04-08T06:10:56.852Z,26.48
2023-04-08T06:13:25.677Z,27.35
2023-04-08T06:15:52.576Z,25.58
2023-04-08T06:18:19.415Z,25.83
2023-04-08T06:20:47.234Z,25.63
2023-04-08T06:23:14.887Z,27.35
2023-04-08T06:25:43.150Z,27.08
2023-04-08T06:28:09.998Z,25.20
2023-04-08T06:30:39.900Z,28.45
2023-04-08T06:33:08.942Z,26.65
2023-04-08T06:35:37.762Z,28.42
2023-04-08T06:38:04.759Z,27.73
2023-04-08T06:40:31.703Z,26.90
2023-04-08T06:42:58.599Z,25.85
2023-04-08T06:45:26.217Z,26.95
2023-04-08T06:47:56.177Z,25.75
2023-04-08T06:50:22.988Z,26.77
2023-04-08T06:52:52.111Z,26.55
2023-04-08T06:55:19.643Z,26.38
2023-04-08T06:57:47.497Z,25.45
2023-04-08T07:00:17.848Z,26.80
2023-04-08T07:02:45.402Z,26.83
2023-04-08T07:05:16.416Z,25.90
2023-04-08T07:07:43.214Z,25.60
2023-04-08T07:10:11.331Z,26.25
2023-04-08T07:12:39.579Z,26.95
2023-04-08T07:15:07.144Z,26.95
2023-04-08T07:17:36.997Z,25.70
2023-04-08T07:20:04.563Z,28.42
2023-04-08T07:22:31.401Z,26.88
2023-04-08T07:24:58.201Z,26.75
2023-04-08T07:27:25.146Z,28.25
2023-04-08T07:29:55.194Z,27.58
2023-04-08T07:32:26.159Z,26.40
2023-04-08T07:34:54.457Z,27.30
2023-04-08T07:37:21.545Z,27.38
2023-04-08T07:39:48.434Z,28.05
2023-04-08T07:42:15.618Z,29.10
2023-04-08T07:44:44.041Z,25.92
2023-04-08T07:47:12.349Z,27.60
2023-04-08T07:49:40.700Z,27.38
2023-04-08T07:52:09.395Z,30.10
2023-04-08T07:54:36.316Z,28.42
2023-04-08T07:57:04.517Z,28.73
2023-04-08T07:59:34.944Z,29.98
2023-04-08T08:02:02.180Z,29.58
2023-04-08T08:04:29.399Z,28.27
2023-04-08T08:06:57.270Z,28.70
2023-04-08T08:09:24.138Z,28.05
2023-04-08T08:11:50.997Z,24.00
2023-04-08T08:14:17.888Z,24.33
2023-04-08T08:16:45.046Z,26.75
2023-04-08T08:19:14.210Z,27.45
2023-04-08T08:21:43.675Z,27.20
2023-04-08T08:24:11.974Z,27.15
2023-04-08T08:26:40.097Z,27.38
2023-04-08T08:29:09.000Z,27.52
2023-04-08T08:31:35.997Z,28.35
2023-04-08T08:34:03.097Z,29.85
2023-04-08T08:36:29.928Z,29.05
2023-04-08T08:39:01.471Z,28.45
2023-04-08T08:41:32.868Z,28.77
2023-04-08T08:44:00.634Z,30.15
2023-04-08T08:46:27.943Z,26.95
2023-04-08T08:48:54.836Z,30.38
2023-04-08T08:51:21.866Z,29.65
2023-04-08T08:53:49.041Z,28.30
2023-04-08T08:56:18.795Z,28.63
2023-04-08T08:58:49.390Z,29.08
2023-04-08T09:01:38.493Z,20.80
2023-04-08T09:04:20.478Z,30.58
2023-04-08T09:07:05.668Z,28.55
2023-04-08T09:09:51.850Z,28.83
2023-04-08T09:12:18.999Z,30.15
2023-04-08T09:14:47.017Z,30.25
2023-04-08T09:17:14.128Z,31.55
2023-04-08T09:20:01.393Z,30.20
2023-04-08T09:22:28.370Z,27.77
2023-04-08T09:24:55.435Z,30.25
2023-04-08T09:27:36.545Z,31.63
2023-04-08T09:30:27.557Z,29.95
2023-04-08T09:32:57.282Z,31.25
2023-04-08T09:35:25.686Z,31.45
2023-04-08T09:37:52.626Z,31.70
2023-04-08T09:40:19.489Z,32.30
2023-04-08T09:42:52.837Z,31.35
2023-04-08T09:45:20.606Z,29.88
2023-04-08T09:48:00.383Z,29.42
2023-04-08T09:50:31.789Z,29.55
2023-04-08T09:53:23.235Z,29.50
2023-04-08T09:55:53.724Z,31.23
2023-04-08T09:58:27.800Z,32.63
2023-04-08T10:03:41.024Z,31.77
2023-04-08T10:06:11.129Z,31.90
2023-04-08T10:08:39.566Z,34.17
2023-04-08T10:11:08.702Z,34.80
2023-04-08T10:13:36.286Z,35.13
2023-04-08T10:16:24.647Z,31.63
2023-04-08T10:18:55.893Z,31.98
2023-04-08T10:21:51.162Z,29.20
2023-04-08T10:24:31.699Z,29.83
2023-04-08T10:26:59.872Z,30.60
2023-04-08T10:29:34.192Z,29.13
2023-04-08T10:32:02.059Z,27.90
2023-04-08T10:34:31.360Z,29.27
2023-04-08T10:36:59.615Z,29.52
2023-04-08T10:39:27.499Z,30.25
2023-04-08T10:41:54.705Z,30.08
2023-04-08T10:44:26.795Z,30.85
2023-04-08T10:46:57.021Z,29.63
2023-04-08T10:49:33.659Z,27.92
2023-04-08T10:52:01.119Z,28.95
2023-04-08T10:54:30.913Z,29.55
2023-04-08T10:56:59.694Z,29.58
2023-04-08T10:59:32.233Z,28.50
2023-04-08T11:02:00.654Z,29.83
2023-04-08T11:04:30.902Z,32.13
2023-04-08T11:06:59.076Z,32.22
2023-04-08T11:09:26.109Z,31.10
2023-04-08T11:11:53.782Z,30.70
2023-04-08T11:14:22.614Z,32.25
2023-04-08T11:16:49.771Z,22.17
2023-04-08T11:19:18.748Z,20.05
2023-04-08T11:21:46.049Z,29.05
2023-04-08T11:24:13.585Z,30.63
2023-04-08T11:26:42.211Z,18.98
2023-04-08T11:29:14.301Z,29.55
2023-04-08T11:31:42.877Z,29.73
2023-04-08T11:34:11.200Z,30.40
2023-04-08T11:36:41.841Z,28.73
2023-04-08T11:39:23.136Z,27.38
2023-04-08T11:41:50.676Z,28.80
2023-04-08T11:44:17.566Z,27.27
2023-04-08T11:46:55.726Z,27.17
2023-04-08T11:49:22.724Z,28.52
2023-04-08T11:51:58.066Z,26.55
2023-04-08T11:54:32.494Z,28.48
2023-04-08T11:57:00.399Z,26.90
2023-04-08T11:59:29.339Z,23.23
2023-04-08T12:01:58.043Z,30.73
2023-04-08T12:04:25.168Z,30.90
2023-04-08T12:06:52.505Z,29.00
2023-04-08T12:09:20.325Z,30.92
2023-04-08T12:11:47.512Z,33.05
2023-04-08T12:14:16.073Z,28.50
2023-04-08T12:16:43.061Z,31.63
2023-04-08T12:19:10.014Z,31.75
2023-04-08T12:21:37.994Z,32.80
2023-04-08T12:24:07.879Z,32.05
2023-04-08T12:26:34.752Z,34.30
2023-04-08T12:29:01.846Z,34.20
2023-04-08T12:31:28.754Z,34.03
2023-04-08T12:33:55.724Z,34.75
2023-04-08T12:36:22.559Z,30.58
2023-04-08T12:38:49.873Z,32.28
2023-04-08T12:41:19.478Z,33.95
2023-04-08T12:43:48.411Z,26.27
2023-04-08T12:46:15.209Z,28.65
2023-04-08T12:48:45.132Z,34.08
2023-04-08T12:51:17.360Z,35.92
2023-04-08T12:53:45.924Z,35.63
2023-04-08T12:56:12.986Z,35.35
2023-04-08T12:58:41.532Z,36.38
2023-04-08T13:01:09.823Z,34.67
2023-04-08T13:03:37.233Z,35.15
2023-04-08T13:06:04.673Z,36.25
2023-04-08T13:08:31.467Z,33.97
2023-04-08T13:10:58.560Z,36.00
2023-04-08T13:13:25.375Z,33.67
2023-04-08T13:15:52.351Z,30.10
2023-04-08T13:18:19.499Z,27.98
2023-04-08T13:20:47.145Z,31.10
2023-04-08T13:23:18.048Z,30.50
2023-04-08T13:25:49.651Z,30.55
2023-04-08T13:28:19.495Z,31.98
2023-04-08T13:30:46.834Z,31.35
2023-04-08T13:33:17.200Z,32.60
2023-04-08T13:35:44.183Z,31.75
2023-04-08T13:38:11.897Z,29.65
2023-04-08T13:40:38.831Z,29.23
2023-04-08T13:43:07.002Z,29.52
2023-04-08T13:45:35.697Z,31.75
2023-04-08T13:48:02.664Z,31.05
2023-04-08T13:50:30.427Z,30.52
2023-04-08T13:52:57.550Z,30.08
2023-04-08T13:55:24.629Z,27.65
2023-04-08T13:57:55.038Z,26.08
2023-04-08T14:00:22.601Z,26.98
2023-04-08T14:02:51.038Z,26.58
2023-04-08T14:05:22.738Z,27.17
2023-04-08T14:07:51.943Z,26.02
2023-04-08T14:10:20.346Z,29.17
2023-04-08T14:12:47.138Z,27.80
2023-04-08T14:15:18.880Z,27.60
2023-04-08T14:17:47.132Z,27.00
2023-04-08T14:20:14.024Z,24.95
2023-04-08T14:22:42.090Z,23.80
2023-04-08T14:25:12.113Z,26.33
2023-04-08T14:27:50.892Z,27.38
2023-04-08T14:30:24.993Z,28.13
2023-04-08T14:32:53.435Z,29.42
2023-04-08T14:35:20.415Z,26.42
2023-04-08T14:37:50.296Z,25.85
2023-04-08T14:40:17.288Z,25.58
2023-04-08T14:42:46.185Z,27.25
2023-04-08T14:45:15.244Z,26.90
2023-04-08T14:47:45.052Z,31.17
2023-04-08T14:50:11.925Z,27.00
2023-04-08T14:52:38.796Z,27.90
2023-04-08T14:55:06.046Z,28.70
2023-04-08T14:57:33.141Z,27.48
2023-04-08T15:00:00.322Z,29.67
2023-04-08T15:02:27.866Z,29.23
2023-04-08T15:04:56.120Z,30.35
2023-04-08T15:07:24.670Z,30.48
2023-04-08T15:09:52.451Z,31.20
2023-04-08T15:12:21.230Z,30.40
2023-04-08T15:14:49.196Z,30.02
2023-04-08T15:17:16.893Z,29.05
2023-04-08T15:19:43.729Z,30.25
2023-04-08T15:22:12.270Z,30.02
2023-04-08T15:24:39.068Z,29.90
2023-04-08T15:27:06.261Z,29.50
2023-04-08T15:29:33.427Z,28.73
2023-04-08T15:32:01.951Z,27.50
2023-04-08T15:34:29.931Z,26.90
2023-04-08T15:36:57.304Z,28.23
2023-04-08T15:39:24.606Z,30.15
2023-04-08T15:41:52.162Z,28.52
2023-04-08T15:44:20.742Z,30.40
2023-04-08T15:46:48.989Z,30.23
2023-04-08T15:49:15.780Z,29.42
2023-04-08T15:51:44.725Z,29.75
2023-04-08T15:54:11.876Z,30.27
2023-04-08T15:56:39.492Z,31.00
2023-04-08T15:59:06.324Z,23.73
2023-04-08T16:01:33.749Z,30.88
2023-04-08T16:04:01.999Z,32.40
2023-04-08T16:06:28.889Z,31.73
2023-04-08T16:08:56.832Z,32.38
2023-04-08T16:11:25.378Z,31.83
2023-04-08T16:13:52.547Z,32.63
2023-04-08T16:16:19.955Z,32.22
2023-04-08T16:18:49.400Z,32.10
2023-04-08T16:21:17.354Z,33.85
2023-04-08T16:23:44.173Z,32.40
2023-04-08T16:26:11.771Z,24.60
2023-04-08T16:28:40.089Z,33.00
2023-04-08T16:31:08.397Z,34.67
2023-04-08T16:33:37.740Z,34.13
2023-04-08T16:36:04.933Z,35.88
2023-04-08T16:38:35.832Z,35.65
2023-04-08T16:41:04.725Z,37.08
2023-04-08T16:43:32.034Z,37.67
2023-04-08T16:45:59.107Z,38.10
2023-04-08T16:48:26.268Z,37.30
2023-04-08T16:50:54.248Z,48.03
2023-04-08T16:53:21.496Z,46.65
2023-04-08T16:55:48.421Z,44.85
2023-04-08T16:58:15.286Z,37.20
2023-04-08T17:00:43.657Z,35.20
2023-04-08T17:03:10.884Z,36.58
2023-04-08T17:05:38.626Z,35.85
2023-04-08T17:08:05.917Z,32.67
2023-04-08T17:10:33.020Z,33.85
2023-04-08T17:12:59.977Z,31.65
2023-04-08T17:15:27.563Z,32.83
2023-04-08T17:17:54.507Z,28.17
2023-04-08T17:20:22.232Z,26.00
2023-04-08T17:22:49.222Z,22.52
2023-04-08T17:25:16.269Z,19.67
2023-04-08T17:27:43.145Z,17.23
2023-04-08T17:30:11.440Z,19.77
2023-04-08T17:32:39.689Z,20.63
2023-04-08T17:35:08.890Z,15.32
2023-04-08T17:37:37.004Z,13.98
2023-04-08T17:40:04.652Z,12.63
2023-04-08T17:42:31.821Z,11.57
2023-04-08T17:44:59.870Z,12.90
2023-04-08T17:47:26.700Z,12.75
2023-04-08T17:50:02.576Z,14.45
2023-04-08T17:52:30.663Z,12.70
2023-04-08T17:54:58.903Z,12.10
2023-04-08T17:57:28.893Z,11.23
2023-04-08T17:59:56.298Z,11.25
2023-04-08T18:02:23.385Z,11.63
2023-04-08T18:04:50.781Z,11.40
2023-04-08T18:07:18.015Z,11.10
2023-04-08T18:09:47.398Z,10.73
2023-04-08T18:12:14.426Z,11.43
2023-04-08T18:14:48.171Z,12.18
2023-04-08T18:17:16.405Z,11.95
2023-04-08T18:19:43.233Z,10.93
2023-04-08T18:22:11.319Z,12.98
2023-04-08T18:24:38.402Z,13.02
2023-04-08T18:27:05.204Z,12.15
2023-04-08T18:29:32.118Z,13.52
2023-04-08T18:31:58.964Z,12.95
2023-04-08T18:34:27.193Z,12.43
2023-04-08T18:36:57.539Z,11.73
2023-04-08T18:39:27.708Z,22.23
2023-04-08T18:41:55.546Z,16.13
2023-04-08T18:44:23.474Z,13.50
2023-04-08T18:46:50.823Z,12.18
2023-04-08T18:49:17.607Z,13.93
2023-04-08T18:51:55.478Z,14.30
2023-04-08T18:54:27.684Z,15.45
2023-04-08T18:56:56.966Z,15.00
2023-04-08T18:59:26.319Z,13.85
2023-04-08T19:01:53.826Z,13.85
2023-04-08T19:04:23.762Z,13.35
2023-04-08T19:06:52.001Z,12.80
2023-04-08T19:09:19.531Z,12.85
2023-04-08T19:11:48.564Z,11.85
2023-04-08T19:14:20.289Z,12.82
2023-04-08T19:16:47.140Z,15.98
2023-04-08T19:19:13.986Z,15.85
2023-04-08T19:21:40.778Z,13.52
2023-04-08T19:24:10.479Z,13.63
2023-04-08T19:26:40.513Z,15.90
2023-04-08T19:29:09.396Z,12.65
2023-04-08T19:31:38.429Z,12.15
2023-04-08T19:34:05.481Z,13.45
2023-04-08T19:36:32.724Z,11.98
2023-04-08T19:39:00.294Z,12.38
2023-04-08T19:41:27.168Z,13.10
2023-04-08T19:43:54.157Z,12.48
2023-04-08T19:46:21.808Z,12.77
2023-04-08T19:48:50.941Z,13.32
2023-04-08T19:51:20.620Z,13.23
2023-04-08T19:53:47.464Z,13.82
2023-04-08T19:56:14.906Z,13.95
2023-04-08T19:58:41.984Z,16.02
2023-04-08T20:01:10.177Z,15.93
2023-04-08T20:03:38.037Z,18.92
2023-04-08T20:06:08.167Z,18.98
2023-04-08T20:08:35.534Z,20.58
2023-04-08T20:11:04.614Z,23.25
2023-04-08T20:13:31.589Z,16.48
2023-04-08T20:15:58.591Z,15.48
2023-04-08T20:18:26.730Z,16.33
2023-04-08T20:20:53.788Z,16.52
2023-04-08T20:23:22.063Z,15.98
2023-04-08T20:25:49.246Z,16.83
2023-04-08T20:28:18.341Z,17.65
2023-04-08T20:30:50.764Z,16.60
2023-04-08T20:33:17.874Z,18.00
2023-04-08T20:35:45.523Z,15.75
2023-04-08T20:38:13.039Z,19.17
2023-04-08T20:40:44.280Z,17.60
2023-04-08T20:43:15.334Z,17.65
2023-04-08T20:45:42.247Z,18.13
2023-04-08T20:48:09.502Z,19.40
2023-04-08T20:50:36.302Z,18.35
2023-04-08T20:53:03.317Z,17.75
2023-04-08T20:55:31.492Z,18.88
2023-04-08T20:58:00.507Z,19.23
2023-04-08T21:00:29.595Z,21.10
2023-04-08T21:02:56.486Z,19.48
2023-04-08T21:05:24.953Z,20.58
2023-04-08T21:07:51.865Z,17.70
2023-04-08T21:10:18.904Z,19.33
2023-04-08T21:12:46.182Z,20.42
2023-04-08T21:15:13.021Z,20.65
2023-04-08T21:17:40.147Z,20.23
2023-04-08T21:20:09.936Z,18.92
2023-04-08T21:22:38.992Z,20.58
2023-04-08T21:25:07.386Z,22.30
2023-04-08T21:27:37.334Z,22.33
2023-04-08T21:30:07.970Z,21.73
2023-04-08T21:32:35.332Z,21.65
2023-04-08T21:35:03.997Z,21.90
2023-04-08T21:37:32.057Z,22.13
2023-04-08T21:39:58.826Z,23.77
2023-04-08T21:42:27.076Z,24.75
2023-04-08T21:44:54.012Z,23.65
2023-04-08T21:47:20.860Z,24.55
2023-04-08T21:49:50.320Z,23.50
2023-04-08T21:52:18.387Z,22.63
2023-04-08T21:54:50.980Z,25.02
2023-04-08T21:57:18.338Z,24.48
2023-04-08T21:59:48.237Z,24.13
2023-04-08T22:02:15.732Z,23.75
2023-04-08T22:04:42.746Z,24.70
2023-04-08T22:07:10.676Z,23.23
2023-04-08T22:09:37.561Z,24.05
2023-04-08T22:12:04.506Z,24.83
2023-04-08T22:14:31.490Z,25.33
2023-04-08T22:16:58.539Z,25.83
2023-04-08T22:19:25.595Z,23.70
2023-04-08T22:21:52.711Z,25.02
2023-04-08T22:24:21.354Z,27.38
2023-04-08T22:26:48.622Z,24.52
2023-04-08T22:29:17.437Z,27.52
2023-04-08T22:31:51.972Z,28.45
2023-04-08T22:34:21.305Z,27.52
2023-04-08T22:36:49.418Z,26.58
2023-04-08T22:39:19.628Z,26.27
2023-04-08T22:41:46.981Z,25.25
2023-04-08T22:44:13.760Z,22.92
2023-04-08T22:46:40.902Z,25.27
2023-04-08T22:49:08.734Z,24.52
2023-04-08T22:51:35.569Z,25.20
2023-04-08T22:54:06.046Z,25.67
2023-04-08T22:56:33.258Z,23.90
2023-04-08T22:59:01.518Z,24.90
2023-04-08T23:01:28.376Z,25.27
2023-04-08T23:03:55.310Z,23.85
2023-04-08T23:06:22.550Z,23.95
2023-04-08T23:08:51.806Z,26.60
2023-04-08T23:11:18.794Z,25.75
2023-04-08T23:13:45.699Z,26.95
2023-04-08T23:16:15.934Z,28.98
2023-04-08T23:18:43.986Z,28.23
2023-04-08T23:21:13.120Z,25.88
2023-04-08T23:23:40.080Z,28.70
2023-04-08T23:26:06.965Z,28.25
2023-04-08T23:28:33.783Z,24.95
2023-04-08T23:31:04.096Z,25.77
2023-04-08T23:33:31.005Z,27.00
2023-04-08T23:35:57.809Z,25.85
2023-04-08T23:38:24.745Z,27.70
2023-04-08T23:40:51.635Z,27.30
2023-04-08T23:43:18.416Z,27.58
2023-04-08T23:45:46.471Z,28.15
2023-04-08T23:48:13.507Z,26.60
2023-04-08T23:50:40.739Z,28.90
2023-04-08T23:53:11.336Z,29.13
2023-04-08T23:55:38.163Z,28.42
2023-04-08T23:58:04.955Z,28.17
